Time;durP1;ratioP1;P1;durP2;ratioP2;P2;SDS_P1;SDS_P2;PMS_P1;PMS_P2;Temp;Humidity;BMP_temperature;BMP_pressure;BME280_temperature;BME280_humidity;BME280_pressure;Samples;Min_cycle;Max_cycle;Signal;HPM_P1;HPM_P2
2023/01/14 00:02:06;;;;;;;7.97;2.47;;;7.20;99.90;;;;;;6202961;28;20050;-78
2023/01/14 00:05:09;;;;;;;6.88;2.03;;;7.30;99.90;;;;;;6202891;28;20512;-79
2023/01/14 00:08:11;;;;;;;8.93;2.55;;;7.20;99.90;;;;;;6202056;28;20519;-79
2023/01/14 00:11:15;;;;;;;10.57;3.17;;;7.20;99.90;;;;;;6202596;28;20416;-79
2023/01/14 00:14:21;;;;;;;6.53;1.88;;;7.10;99.90;;;;;;6202705;28;20421;-79
2023/01/14 00:17:22;;;;;;;7.28;2.20;;;7.10;99.90;;;;;;6202028;28;20177;-79
2023/01/14 00:20:24;;;;;;;6.75;2.55;;;7.10;99.90;;;;;;6196776;28;20050;-79
2023/01/14 00:23:27;;;;;;;11.88;4.10;;;7.10;99.90;;;;;;6150687;28;20050;-79
2023/01/14 00:26:29;;;;;;;8.48;2.30;;;7.10;99.90;;;;;;6202320;28;20061;-78
2023/01/14 00:29:34;;;;;;;16.65;3.45;;;7.10;99.90;;;;;;6201710;28;20053;-78
2023/01/14 00:32:35;;;;;;;10.52;2.80;;;7.10;99.90;;;;;;6201717;28;20054;-78
2023/01/14 00:35:37;;;;;;;7.65;3.00;;;7.10;99.90;;;;;;6202780;28;20057;-78
2023/01/14 00:38:39;;;;;;;7.45;2.38;;;7.10;99.90;;;;;;6203588;28;20444;-79
2023/01/14 00:41:41;;;;;;;7.28;1.98;;;7.20;99.90;;;;;;6202828;28;20053;-78
2023/01/14 00:44:45;;;;;;;14.00;1.75;;;7.20;99.90;;;;;;6202305;28;20047;-78
2023/01/14 00:47:47;;;;;;;5.95;2.72;;;7.20;99.90;;;;;;6202973;28;20188;-78
2023/01/14 00:50:48;;;;;;;5.07;2.00;;;7.20;99.90;;;;;;6199474;28;20054;-78
2023/01/14 00:53:50;;;;;;;8.05;2.40;;;7.20;99.90;;;;;;6178527;28;20087;-78
2023/01/14 00:56:52;;;;;;;6.50;2.40;;;7.10;99.90;;;;;;6177681;28;20177;-78
2023/01/14 00:59:55;;;;;;;5.25;2.60;;;7.10;99.90;;;;;;6176343;28;20051;-78
2023/01/14 01:02:57;;;;;;;9.70;1.83;;;7.10;99.90;;;;;;6176956;28;20055;-78
2023/01/14 01:05:59;;;;;;;7.78;2.90;;;7.10;99.90;;;;;;6176472;28;20055;-78
2023/01/14 01:09:03;;;;;;;7.18;1.75;;;7.10;99.90;;;;;;6176291;28;20046;-78
2023/01/14 01:12:05;;;;;;;9.20;2.70;;;7.00;99.90;;;;;;6177646;28;20054;-78
2023/01/14 01:15:10;;;;;;;7.78;1.88;;;7.00;99.90;;;;;;6177528;28;20516;-78
2023/01/14 01:18:13;;;;;;;9.75;4.88;;;7.00;99.90;;;;;;6175812;28;20042;-78
2023/01/14 01:21:16;;;;;;;3.50;1.17;;;6.90;99.90;;;;;;6186438;28;20050;-78
2023/01/14 01:24:18;;;;;;;9.70;1.77;;;6.90;99.90;;;;;;6176444;28;20148;-78
2023/01/14 01:27:19;;;;;;;5.57;1.50;;;6.90;99.90;;;;;;6176416;28;20047;-79
2023/01/14 01:30:23;;;;;;;10.55;2.17;;;6.90;99.90;;;;;;6174578;28;20051;-78
2023/01/14 01:33:25;;;;;;;7.75;1.92;;;6.90;99.90;;;;;;6204313;28;20046;-79
2023/01/14 01:36:28;;;;;;;9.65;1.98;;;6.90;99.90;;;;;;6199826;28;20112;-78
2023/01/14 01:39:30;;;;;;;9.20;3.78;;;6.90;99.90;;;;;;6199491;28;20047;-78
2023/01/14 01:42:34;;;;;;;5.28;2.25;;;6.90;99.90;;;;;;6199889;28;20044;-79
2023/01/14 01:45:47;;;;;;;10.25;1.92;;;6.90;99.90;;;;;;6199639;28;20061;-78
2023/01/14 01:48:49;;;;;;;12.32;2.05;;;6.90;99.90;;;;;;6199863;28;20050;-79
2023/01/14 01:51:54;;;;;;;10.13;1.65;;;6.90;99.90;;;;;;6200288;28;20500;-79
2023/01/14 01:55:01;;;;;;;4.90;1.55;;;6.80;99.90;;;;;;6200066;28;20526;-78
2023/01/14 01:58:04;;;;;;;6.38;2.30;;;6.80;99.90;;;;;;6198945;28;20432;-78
2023/01/14 02:01:07;;;;;;;6.35;2.40;;;6.80;99.90;;;;;;6200370;28;20065;-79
2023/01/14 02:04:10;;;;;;;7.55;2.38;;;6.80;99.90;;;;;;6195238;28;20049;-78
2023/01/14 02:07:16;;;;;;;9.85;2.10;;;6.90;99.90;;;;;;6200328;28;20079;-79
2023/01/14 02:10:19;;;;;;;14.32;2.20;;;7.00;99.90;;;;;;6200452;28;20047;-79
2023/01/14 02:13:33;;;;;;;8.38;2.03;;;7.10;99.90;;;;;;6200196;28;20046;-78
2023/01/14 02:16:49;;;;;;;10.45;2.67;;;7.10;99.90;;;;;;6200959;28;20091;-79
2023/01/14 02:20:12;;;;;;;11.27;1.88;;;7.20;99.90;;;;;;6199669;28;20156;-78
2023/01/14 02:23:49;;;;;;;9.27;1.85;;;7.20;99.90;;;;;;6196202;28;20053;-79
2023/01/14 02:27:25;;;;;;;6.22;2.25;;;7.20;99.90;;;;;;6200101;28;20042;-79
2023/01/14 02:30:40;;;;;;;12.93;2.55;;;7.10;99.90;;;;;;6200182;28;20046;-79
2023/01/14 02:33:46;;;;;;;12.52;2.38;;;7.10;99.90;;;;;;6199627;28;20065;-78
2023/01/14 02:36:52;;;;;;;8.20;3.22;;;7.20;99.90;;;;;;6199360;28;20046;-78
2023/01/14 02:40:01;;;;;;;9.60;1.48;;;7.20;99.90;;;;;;6199134;28;20057;-79
2023/01/14 02:46:35;;;;;;;8.97;2.23;;;7.30;99.90;;;;;;6198646;28;20634;-79
2023/01/14 02:49:41;;;;;;;12.35;1.85;;;7.30;99.90;;;;;;6197991;28;20050;-78
2023/01/14 02:52:42;;;;;;;9.23;2.15;;;7.30;99.90;;;;;;6198302;28;20046;-78
2023/01/14 02:55:44;;;;;;;8.13;1.30;;;7.30;99.90;;;;;;6199378;28;20054;-78
2023/01/14 02:59:09;;;;;;;5.32;1.20;;;7.30;99.90;;;;;;6197899;28;20050;-79
2023/01/14 03:02:44;;;;;;;7.63;2.03;;;7.30;99.90;;;;;;6198389;28;20075;-79
2023/01/14 03:06:07;;;;;;;8.70;4.78;;;7.30;99.90;;;;;;6198527;28;20047;-79
2023/01/14 03:09:16;;;;;;;9.07;1.30;;;7.30;99.90;;;;;;6197777;28;20393;-78
2023/01/14 03:12:28;;;;;;;6.22;2.40;;;7.30;99.90;;;;;;6199180;28;20519;-80
2023/01/14 03:15:35;;;;;;;7.82;1.83;;;7.30;99.90;;;;;;6198798;28;20084;-79
2023/01/14 03:18:45;;;;;;;6.00;1.67;;;7.30;99.90;;;;;;6197280;28;20468;-79
2023/01/14 03:21:50;;;;;;;8.70;2.47;;;7.20;99.90;;;;;;6197063;28;20053;-79
2023/01/14 03:24:53;;;;;;;4.85;2.10;;;7.20;99.90;;;;;;6194105;28;20100;-78
2023/01/14 03:27:58;;;;;;;6.78;2.03;;;7.10;99.90;;;;;;6198731;28;20579;-80
2023/01/14 03:31:04;;;;;;;11.63;1.80;;;7.10;99.90;;;;;;6197610;28;20042;-79
2023/01/14 03:34:11;;;;;;;11.00;2.13;;;7.00;99.90;;;;;;6197997;28;20061;-78
2023/01/14 03:37:15;;;;;;;12.18;2.13;;;7.00;99.90;;;;;;6197717;28;20049;-79
2023/01/14 03:40:18;;;;;;;12.00;2.05;;;7.00;99.90;;;;;;6197020;28;20065;-78
2023/01/14 03:43:27;;;;;;;7.25;2.13;;;7.00;99.90;;;;;;6198432;28;20046;-79
2023/01/14 03:46:29;;;;;;;6.65;1.48;;;7.10;99.90;;;;;;6197861;28;20447;-79
2023/01/14 03:49:32;;;;;;;7.85;1.95;;;7.10;99.90;;;;;;6197078;28;20047;-79
2023/01/14 03:52:55;;;;;;;6.32;1.50;;;7.10;99.90;;;;;;6196980;28;20692;-78
2023/01/14 03:56:05;;;;;;;4.65;1.10;;;7.10;99.90;;;;;;6198518;28;20051;-79
2023/01/14 03:59:12;;;;;;;10.07;1.48;;;7.20;99.90;;;;;;6197661;28;20058;-79
2023/01/14 04:02:15;;;;;;;9.10;1.55;;;7.20;99.90;;;;;;6198146;28;20624;-79
2023/01/14 04:05:18;;;;;;;4.78;1.80;;;7.20;99.90;;;;;;6197832;28;20050;-79
2023/01/14 04:08:21;;;;;;;10.18;1.85;;;7.20;99.90;;;;;;6196449;28;20062;-78
2023/01/14 04:11:23;;;;;;;13.35;1.38;;;7.20;99.90;;;;;;6197400;28;20050;-79
2023/01/14 04:17:44;;;;;;;12.95;2.45;;;7.20;99.90;;;;;;6173251;28;20507;-78
2023/01/14 04:20:47;;;;;;;11.93;1.80;;;7.20;99.90;;;;;;6174054;28;20408;-78
2023/01/14 04:23:50;;;;;;;7.20;1.63;;;7.20;99.90;;;;;;6181986;28;20189;-79
2023/01/14 04:26:52;;;;;;;8.02;1.58;;;7.20;99.90;;;;;;6197608;28;20053;-79
2023/01/14 04:29:53;;;;;;;6.93;1.70;;;7.10;99.90;;;;;;6196536;28;20050;-78
2023/01/14 04:32:55;;;;;;;3.50;1.27;;;7.10;99.90;;;;;;6198188;28;20046;-79
2023/01/14 04:35:58;;;;;;;5.70;1.42;;;7.10;99.90;;;;;;6197701;28;20110;-79
2023/01/14 04:39:00;;;;;;;3.35;1.65;;;7.10;99.90;;;;;;6196410;28;20530;-78
2023/01/14 04:45:21;;;;;;;11.80;1.75;;;7.10;99.90;;;;;;6202028;28;20479;-79
2023/01/14 04:48:24;;;;;;;11.85;3.63;;;7.10;99.90;;;;;;6201281;28;20050;-79
2023/01/14 04:51:27;;;;;;;3.85;1.48;;;7.20;99.90;;;;;;6202572;28;20050;-79
2023/01/14 04:54:29;;;;;;;13.18;3.15;;;7.20;99.90;;;;;;6201497;28;20055;-79
2023/01/14 04:57:30;;;;;;;8.32;1.90;;;7.20;99.90;;;;;;6200771;28;20054;-79
2023/01/14 05:00:32;;;;;;;10.90;2.63;;;7.30;99.90;;;;;;6201648;28;20054;-79
2023/01/14 05:03:34;;;;;;;10.88;2.30;;;7.30;99.90;;;;;;6201072;28;20389;-79
2023/01/14 05:06:37;;;;;;;16.13;1.60;;;7.30;99.90;;;;;;6201360;28;20046;-79
2023/01/14 05:09:39;;;;;;;9.70;2.83;;;7.30;99.90;;;;;;6200247;28;20050;-79
2023/01/14 05:12:55;;;;;;;9.05;1.85;;;7.30;99.90;;;;;;6200999;28;20138;-79
2023/01/14 05:16:00;;;;;;;11.75;3.80;;;7.30;99.90;;;;;;6201722;28;20054;-79
2023/01/14 05:19:02;;;;;;;5.43;1.58;;;7.30;99.90;;;;;;6200288;28;20050;-78
2023/01/14 05:22:05;;;;;;;9.10;2.47;;;7.30;99.90;;;;;;6200421;28;20050;-79
2023/01/14 05:25:08;;;;;;;6.80;2.45;;;7.30;99.90;;;;;;6184885;28;20470;-79
2023/01/14 05:28:11;;;;;;;4.65;1.80;;;7.30;99.90;;;;;;6176192;28;20050;-79
2023/01/14 05:31:13;;;;;;;11.98;2.60;;;7.20;99.90;;;;;;6176485;28;20050;-78
2023/01/14 05:34:17;;;;;;;4.93;2.33;;;7.30;99.90;;;;;;6176422;28;20057;-79
2023/01/14 05:37:20;;;;;;;9.38;4.03;;;7.20;99.90;;;;;;6174891;28;20150;-78
2023/01/14 05:40:22;;;;;;;9.52;2.05;;;7.20;99.90;;;;;;6175489;28;20147;-78
2023/01/14 05:46:45;;;;;;;11.15;2.60;;;7.20;99.90;;;;;;6175295;28;20038;-78
2023/01/14 05:49:46;;;;;;;10.18;2.10;;;7.20;99.90;;;;;;6174765;28;20051;-78
2023/01/14 05:52:49;;;;;;;5.65;1.52;;;7.20;99.90;;;;;;6174351;28;20046;-78
2023/01/14 05:55:52;;;;;;;11.07;2.45;;;7.20;99.90;;;;;;6175549;28;20051;-78
2023/01/14 05:58:54;;;;;;;7.97;2.50;;;7.20;99.90;;;;;;6175009;28;20509;-79
2023/01/14 06:08:35;;;;;;;11.20;2.75;;;7.20;99.90;;;;;;6198377;28;20055;-79
2023/01/14 06:11:39;;;;;;;9.88;2.65;;;7.30;99.90;;;;;;6198700;28;20047;-78
2023/01/14 06:14:42;;;;;;;9.60;2.08;;;7.20;99.90;;;;;;6199175;28;20045;-77
2023/01/14 06:17:46;;;;;;;13.18;3.72;;;7.20;99.90;;;;;;6196656;28;20054;-78
2023/01/14 06:20:48;;;;;;;11.40;2.97;;;7.30;99.90;;;;;;6197778;28;20046;-78
2023/01/14 06:23:51;;;;;;;7.60;1.80;;;7.30;99.90;;;;;;6197264;28;20053;-78
2023/01/14 06:26:53;;;;;;;5.13;1.52;;;7.40;99.90;;;;;;6191078;28;20062;-78
2023/01/14 06:29:54;;;;;;;16.15;3.63;;;7.50;99.90;;;;;;6197479;28;20057;-78
2023/01/14 06:32:56;;;;;;;11.23;3.42;;;7.60;99.90;;;;;;6198942;28;20030;-78
2023/01/14 06:35:58;;;;;;;14.80;2.38;;;7.60;99.90;;;;;;6199809;28;20066;-78
2023/01/14 06:39:03;;;;;;;9.43;3.10;;;7.70;99.90;;;;;;6199970;28;20046;-78
2023/01/14 06:42:04;;;;;;;9.55;2.55;;;7.70;99.90;;;;;;6198269;28;20046;-79
2023/01/14 06:45:07;;;;;;;9.05;2.03;;;7.80;99.90;;;;;;6198293;28;20054;-79
2023/01/14 06:48:08;;;;;;;14.48;2.22;;;7.80;99.90;;;;;;6198163;28;20086;-79
2023/01/14 06:51:12;;;;;;;13.82;3.95;;;7.80;99.90;;;;;;6198884;28;20050;-78
2023/01/14 06:54:15;;;;;;;6.55;2.47;;;7.90;99.90;;;;;;6197917;28;20065;-78
2023/01/14 06:57:17;;;;;;;7.60;2.42;;;7.90;99.90;;;;;;6197557;28;20053;-79
2023/01/14 07:00:19;;;;;;;5.43;2.42;;;8.00;99.90;;;;;;6197713;28;20054;-78
2023/01/14 07:03:21;;;;;;;9.48;2.45;;;8.00;99.90;;;;;;6196816;28;20053;-79
2023/01/14 07:06:22;;;;;;;9.50;2.28;;;8.10;99.90;;;;;;6197252;28;20053;-79
2023/01/14 07:09:25;;;;;;;17.30;2.50;;;8.20;99.90;;;;;;6197535;28;20050;-79
2023/01/14 07:12:27;;;;;;;8.95;2.40;;;8.20;99.90;;;;;;6197721;28;20057;-79
2023/01/14 07:15:29;;;;;;;5.65;2.20;;;8.20;99.90;;;;;;6198258;28;20061;-79
2023/01/14 07:18:31;;;;;;;11.10;4.60;;;8.30;99.90;;;;;;6197245;28;20053;-79
2023/01/14 07:21:32;;;;;;;8.10;2.55;;;8.20;99.90;;;;;;6197588;28;20069;-79
2023/01/14 07:24:37;;;;;;;9.10;2.47;;;8.30;99.90;;;;;;6197276;28;20413;-79
2023/01/14 07:27:39;;;;;;;15.43;4.35;;;8.30;99.90;;;;;;6194108;28;20187;-79
2023/01/14 07:30:41;;;;;;;8.30;1.95;;;8.30;99.90;;;;;;6196935;28;20053;-79
2023/01/14 07:33:42;;;;;;;5.93;2.95;;;8.30;99.90;;;;;;6197576;28;20050;-79
2023/01/14 07:36:44;;;;;;;8.98;2.53;;;8.30;99.90;;;;;;6197343;28;20042;-78
2023/01/14 07:39:47;;;;;;;8.32;2.08;;;8.30;99.90;;;;;;6197121;28;20069;-79
2023/01/14 07:42:53;;;;;;;9.07;2.30;;;8.40;99.90;;;;;;6197671;28;20050;-79
2023/01/14 07:45:58;;;;;;;10.00;2.30;;;8.50;99.90;;;;;;6180150;28;20051;-79
2023/01/14 07:49:00;;;;;;;5.80;1.65;;;8.50;99.90;;;;;;6172462;28;20049;-79
2023/01/14 07:52:01;;;;;;;7.40;2.63;;;8.60;99.90;;;;;;6172812;28;20061;-78
2023/01/14 07:55:05;;;;;;;13.00;2.40;;;8.70;99.90;;;;;;6172444;28;20054;-79
2023/01/14 07:58:07;;;;;;;12.63;1.60;;;8.80;99.90;;;;;;6171557;28;20054;-78
2023/01/14 08:01:10;;;;;;;2.83;1.75;;;8.80;99.90;;;;;;6173754;28;20063;-78
2023/01/14 08:04:12;;;;;;;7.68;1.88;;;8.90;99.90;;;;;;6173488;28;20047;-79
2023/01/14 08:07:14;;;;;;;8.63;1.65;;;9.00;99.90;;;;;;6174134;28;20605;-79
2023/01/14 08:10:17;;;;;;;9.75;3.67;;;9.00;99.90;;;;;;6189357;28;20479;-78
2023/01/14 08:13:19;;;;;;;6.45;1.88;;;9.10;99.90;;;;;;6197841;28;20053;-79
2023/01/14 08:16:21;;;;;;;3.85;1.52;;;9.10;99.90;;;;;;6199289;28;20053;-78
2023/01/14 08:19:23;;;;;;;3.58;1.63;;;9.20;99.90;;;;;;6201244;28;20420;-77
2023/01/14 08:22:24;;;;;;;3.85;1.10;;;9.30;99.90;;;;;;6149960;28;20058;-78
2023/01/14 08:25:28;;;;;;;5.50;1.02;;;9.30;99.90;;;;;;6174798;28;20084;-78
2023/01/14 08:28:30;;;;;;;3.88;1.20;;;9.40;99.90;;;;;;6197831;28;20051;-77
2023/01/14 08:31:32;;;;;;;6.03;1.42;;;9.50;99.90;;;;;;6203816;28;20061;-78
2023/01/14 08:34:34;;;;;;;2.33;1.10;;;9.70;99.90;;;;;;6198798;28;20049;-78
2023/01/14 08:37:35;;;;;;;4.20;0.90;;;9.80;99.90;;;;;;6201563;28;20065;-78
2023/01/14 08:40:38;;;;;;;7.25;1.45;;;9.90;99.90;;;;;;6200926;28;20428;-78
2023/01/14 08:43:42;;;;;;;9.75;1.35;;;10.00;99.90;;;;;;6200131;28;20412;-78
2023/01/14 08:46:43;;;;;;;4.55;1.35;;;10.00;99.90;;;;;;6200949;28;20046;-78
2023/01/14 08:49:45;;;;;;;8.27;1.40;;;10.00;99.90;;;;;;6199731;28;20050;-78
2023/01/14 08:52:46;;;;;;;1.95;0.80;;;10.00;99.90;;;;;;6200624;28;20053;-79
2023/01/14 08:55:49;;;;;;;5.05;1.27;;;10.00;99.90;;;;;;6202211;28;20057;-78
2023/01/14 08:58:52;;;;;;;7.60;1.40;;;10.00;99.90;;;;;;6177684;28;20043;-78
2023/01/14 09:01:53;;;;;;;4.65;1.00;;;10.10;99.90;;;;;;6178573;28;20058;-78
2023/01/14 09:04:55;;;;;;;4.45;1.30;;;10.10;99.90;;;;;;6179140;28;20051;-79
2023/01/14 09:18:01;;;;;;;3.45;1.58;;;10.20;99.90;;;;;;6176055;28;20621;-77
2023/01/14 09:21:04;;;;;;;2.63;1.10;;;10.10;99.90;;;;;;6176784;28;20053;-78
2023/01/14 09:24:06;;;;;;;4.13;1.02;;;10.10;99.90;;;;;;6180270;28;20054;-79
2023/01/14 09:27:09;;;;;;;2.83;1.63;;;10.20;99.90;;;;;;6200752;28;20046;-78
2023/01/14 09:30:12;;;;;;;6.38;2.75;;;10.10;99.90;;;;;;6180770;28;20051;-78
2023/01/14 09:33:14;;;;;;;8.23;1.20;;;10.10;99.90;;;;;;6176026;28;20051;-78
2023/01/14 09:36:15;;;;;;;4.43;1.08;;;10.10;99.90;;;;;;6176333;28;20061;-77
2023/01/14 09:39:17;;;;;;;3.97;1.02;;;10.00;99.90;;;;;;6175071;28;20062;-78
2023/01/14 09:42:29;;;;;;;3.10;1.00;;;10.10;99.90;;;;;;6175321;28;20051;-78
2023/01/14 09:45:32;;;;;;;4.10;1.70;;;10.10;99.90;;;;;;6176484;28;20532;-77
2023/01/14 09:48:33;;;;;;;3.83;0.93;;;10.10;99.90;;;;;;6174494;28;20062;-77
2023/01/14 09:51:55;;;;;;;6.93;1.80;;;10.10;99.90;;;;;;6175970;28;20050;-77
2023/01/14 09:55:08;;;;;;;5.38;1.42;;;10.20;99.90;;;;;;6184056;28;20492;-77
2023/01/14 09:58:17;;;;;;;6.22;1.02;;;10.30;99.90;;;;;;6200140;28;20508;-78
2023/01/14 10:01:25;;;;;;;3.25;0.73;;;10.30;99.90;;;;;;6201025;28;20057;-78
2023/01/14 10:04:49;;;;;;;3.28;1.20;;;10.30;99.90;;;;;;6200859;28;20050;-77
2023/01/14 10:07:51;;;;;;;1.30;0.70;;;10.40;99.90;;;;;;6200340;28;20054;-78
2023/01/14 10:10:54;;;;;;;2.97;0.77;;;10.40;99.90;;;;;;6199656;28;20084;-78
2023/01/14 10:14:04;;;;;;;1.90;0.95;;;10.50;99.90;;;;;;6201357;28;20057;-77
2023/01/14 10:17:10;;;;;;;2.63;1.13;;;10.50;99.90;;;;;;6203113;28;20042;-78
2023/01/14 10:20:19;;;;;;;2.78;1.08;;;10.60;99.90;;;;;;6198688;28;20047;-77
2023/01/14 10:23:25;;;;;;;12.25;2.75;;;10.60;99.90;;;;;;6199176;28;20420;-78
2023/01/14 10:26:32;;;;;;;4.65;1.50;;;10.60;99.90;;;;;;6197927;28;20046;-77
2023/01/14 10:29:35;;;;;;;1.40;0.77;;;10.60;99.90;;;;;;6186773;28;20042;-78
2023/01/14 10:32:36;;;;;;;3.70;0.88;;;10.60;99.90;;;;;;6195262;28;20054;-78
2023/01/14 10:35:40;;;;;;;3.58;1.13;;;10.60;99.90;;;;;;6199258;28;20054;-78
2023/01/14 10:38:42;;;;;;;5.72;0.85;;;10.70;99.90;;;;;;6197109;28;20082;-78
2023/01/14 10:41:50;;;;;;;7.13;1.30;;;10.70;99.90;;;;;;6197983;28;20053;-78
2023/01/14 10:44:54;;;;;;;2.17;0.90;;;10.70;99.90;;;;;;6198158;28;20416;-78
2023/01/14 10:48:02;;;;;;;2.63;1.25;;;10.70;99.90;;;;;;6199133;28;20056;-78
2023/01/14 10:51:30;;;;;;;8.93;1.63;;;10.70;99.90;;;;;;6198513;28;20174;-78
2023/01/14 10:54:32;;;;;;;1.73;1.13;;;10.70;99.90;;;;;;6197851;28;20049;-78
2023/01/14 10:57:38;;;;;;;3.25;1.30;;;10.80;99.90;;;;;;6197422;28;20054;-78
2023/01/14 11:00:43;;;;;;;7.45;3.00;;;10.80;99.90;;;;;;6198227;28;20054;-78
2023/01/14 11:03:49;;;;;;;7.40;2.33;;;10.90;99.90;;;;;;6198635;28;20050;-78
2023/01/14 11:06:51;;;;;;;3.90;1.27;;;10.90;99.90;;;;;;6198050;28;20469;-77
2023/01/14 11:09:53;;;;;;;3.75;1.48;;;10.90;99.90;;;;;;6198737;28;20046;-78
2023/01/14 11:13:15;;;;;;;4.00;1.92;;;10.90;99.90;;;;;;6198440;28;20046;-78
2023/01/14 11:16:32;;;;;;;7.28;1.73;;;11.00;99.90;;;;;;6199514;28;20049;-77
2023/01/14 11:19:34;;;;;;;1.90;1.00;;;11.00;99.90;;;;;;6200782;28;20089;-79
2023/01/14 11:22:36;;;;;;;3.70;2.13;;;11.00;99.90;;;;;;6199971;28;20046;-78
2023/01/14 11:25:41;;;;;;;3.38;1.50;;;11.00;99.90;;;;;;6199340;28;20046;-78
2023/01/14 11:28:46;;;;;;;3.72;1.05;;;11.00;99.90;;;;;;6197006;28;20108;-78
2023/01/14 11:31:52;;;;;;;3.83;1.60;;;11.10;99.90;;;;;;6180598;28;20420;-78
2023/01/14 11:34:56;;;;;;;2.53;1.40;;;11.10;99.90;;;;;;6175236;28;20044;-78
2023/01/14 11:37:58;;;;;;;1.55;1.00;;;11.10;99.90;;;;;;6176246;28;20055;-82
2023/01/14 11:44:25;;;;;;;3.22;1.88;;;11.10;99.90;;;;;;6172785;28;20126;-78
2023/01/14 11:47:30;;;;;;;1.42;1.27;;;11.10;99.90;;;;;;6172534;28;20050;-77
2023/01/14 11:50:34;;;;;;;2.33;1.52;;;11.10;99.90;;;;;;6172718;28;20065;-77
2023/01/14 11:53:44;;;;;;;3.08;1.00;;;11.10;99.90;;;;;;6172096;28;20390;-78
2023/01/14 11:56:47;;;;;;;3.97;1.30;;;11.10;99.90;;;;;;6196832;28;20061;-77
2023/01/14 11:59:51;;;;;;;1.17;0.90;;;11.10;99.90;;;;;;6196724;28;20050;-77
2023/01/14 12:03:02;;;;;;;0.98;0.63;;;11.10;99.90;;;;;;6196537;28;20061;-79
2023/01/14 12:06:08;;;;;;;2.10;1.48;;;11.20;99.90;;;;;;6197170;28;20051;-77
2023/01/14 12:09:17;;;;;;;2.22;1.02;;;11.10;99.90;;;;;;6196475;28;20147;-77
2023/01/14 12:12:25;;;;;;;1.88;0.52;;;11.10;99.90;;;;;;6196922;28;20057;-78
2023/01/14 12:18:57;;;;;;;0.50;0.40;;;11.20;99.90;;;;;;6182062;28;20389;-77
2023/01/14 12:22:12;;;;;;;1.63;0.70;;;11.20;99.90;;;;;;6173006;28;20043;-78
2023/01/14 12:25:20;;;;;;;4.60;2.78;;;11.20;99.90;;;;;;6184720;28;20577;-77
2023/01/14 12:28:29;;;;;;;3.95;0.63;;;11.20;99.90;;;;;;6195678;28;20050;-77
2023/01/14 12:31:36;;;;;;;2.53;0.85;;;11.30;99.90;;;;;;6186352;28;20081;-77
2023/01/14 12:34:42;;;;;;;9.63;6.45;;;11.30;99.90;;;;;;6197074;28;20047;-79
2023/01/14 12:37:51;;;;;;;8.85;8.07;;;11.40;99.90;;;;;;6194412;28;20046;-78
2023/01/14 12:47:39;;;;;;;1.67;0.80;;;11.60;99.90;;;;;;6198376;28;20496;-79
2023/01/14 12:50:51;;;;;;;1.63;0.50;;;11.80;99.90;;;;;;6198877;28;20061;-79
2023/01/14 12:53:56;;;;;;;0.93;0.77;;;11.90;99.90;;;;;;6198685;28;20051;-77
2023/01/14 12:57:00;;;;;;;1.45;0.57;;;11.80;99.90;;;;;;6198877;28;20050;-77
2023/01/14 13:00:07;;;;;;;2.50;0.63;;;11.80;99.90;;;;;;6197746;28;20564;-77
2023/01/14 13:03:18;;;;;;;7.18;2.53;;;11.90;99.90;;;;;;6203751;28;20129;-79
2023/01/14 13:06:27;;;;;;;1.92;0.82;;;11.80;99.90;;;;;;6207935;28;20143;-78
2023/01/14 13:09:31;;;;;;;4.47;0.80;;;11.80;99.90;;;;;;6205396;28;20042;-78
2023/01/14 13:12:36;;;;;;;2.25;0.90;;;11.80;99.90;;;;;;6207713;28;20065;-78
2023/01/14 13:15:38;;;;;;;1.13;0.60;;;11.80;99.90;;;;;;6205407;28;20061;-77
2023/01/14 13:18:45;;;;;;;2.95;1.23;;;11.80;99.90;;;;;;6204457;28;20054;-77
2023/01/14 13:21:59;;;;;;;5.00;0.60;;;11.80;99.90;;;;;;6207317;28;20213;-78
2023/01/14 13:25:04;;;;;;;1.88;1.73;;;11.80;99.90;;;;;;6206004;28;20393;-78
2023/01/14 13:28:53;;;;;;;5.60;0.90;;;11.80;99.90;;;;;;6206394;28;20061;-79
2023/01/14 13:31:55;;;;;;;1.48;0.88;;;11.80;99.90;;;;;;6200008;28;20410;-80
2023/01/14 13:35:02;;;;;;;2.63;0.80;;;11.80;99.90;;;;;;6184815;28;20110;-78
2023/01/14 13:38:18;;;;;;;2.75;0.80;;;11.80;99.90;;;;;;6181386;28;20055;-79
2023/01/14 13:41:39;;;;;;;2.38;1.13;;;11.80;99.90;;;;;;6179503;28;20049;-76
2023/01/14 13:44:48;;;;;;;2.67;1.42;;;11.70;99.90;;;;;;6181181;28;20042;-78
2023/01/14 13:47:51;;;;;;;2.60;1.13;;;11.70;99.90;;;;;;6184984;28;20678;-78
2023/01/14 13:50:53;;;;;;;2.05;0.98;;;11.70;99.90;;;;;;6205644;28;20062;-78
2023/01/14 13:54:01;;;;;;;4.35;0.98;;;11.70;99.90;;;;;;6206565;28;20047;-78
2023/01/14 13:57:20;;;;;;;4.10;0.90;;;11.70;99.90;;;;;;6205863;28;20049;-79
2023/01/14 14:00:44;;;;;;;1.38;0.88;;;11.70;99.90;;;;;;6206496;28;20050;-78
2023/01/14 14:03:46;;;;;;;1.65;0.88;;;11.70;99.90;;;;;;6201353;28;20054;-78
2023/01/14 14:06:47;;;;;;;3.15;1.52;;;11.70;99.90;;;;;;6203221;28;20540;-78
2023/01/14 14:09:51;;;;;;;1.65;1.20;;;11.70;99.90;;;;;;6200266;28;20182;-79
2023/01/14 14:16:20;;;;;;;5.32;0.93;;;11.70;99.90;;;;;;6203957;28;20046;-79
2023/01/14 14:19:25;;;;;;;1.85;0.80;;;11.70;99.90;;;;;;6199407;28;20404;-77
2023/01/14 14:22:35;;;;;;;1.30;1.20;;;11.70;99.90;;;;;;6199882;28;20058;-78
2023/01/14 14:25:42;;;;;;;2.35;0.88;;;11.70;99.90;;;;;;6190938;28;20520;-78
2023/01/14 14:28:48;;;;;;;1.55;0.80;;;11.70;99.90;;;;;;6200241;28;20054;-78
2023/01/14 14:31:51;;;;;;;1.20;0.88;;;11.70;99.90;;;;;;6200420;28;20057;-78
2023/01/14 14:35:06;;;;;;;1.73;0.88;;;11.70;99.90;;;;;;6184389;28;20046;-78
2023/01/14 14:38:16;;;;;;;2.72;1.55;;;11.70;99.90;;;;;;6176158;28;20046;-78
2023/01/14 14:41:33;;;;;;;3.33;1.05;;;11.80;99.90;;;;;;6178690;28;20047;-78
2023/01/14 14:44:35;;;;;;;5.07;2.75;;;11.70;99.90;;;;;;6199911;28;20046;-78
2023/01/14 14:47:44;;;;;;;2.75;1.73;;;11.70;99.90;;;;;;6201558;28;20060;-79
2023/01/14 14:50:46;;;;;;;3.17;1.13;;;11.60;99.90;;;;;;6200635;28;20050;-79
2023/01/14 14:53:47;;;;;;;4.95;1.35;;;11.40;99.90;;;;;;6200323;28;20053;-79
2023/01/14 14:56:50;;;;;;;1.45;0.95;;;11.30;99.90;;;;;;6200601;28;20046;-78
2023/01/14 14:59:55;;;;;;;4.97;0.82;;;11.10;99.90;;;;;;6199775;28;20058;-79
2023/01/14 15:02:58;;;;;;;3.08;1.23;;;11.00;99.90;;;;;;6203367;28;20050;-81
2023/01/14 15:06:04;;;;;;;2.13;1.50;;;11.00;99.90;;;;;;6205535;28;20056;-80
2023/01/14 15:09:09;;;;;;;5.18;3.65;;;11.00;99.90;;;;;;6200581;28;20050;-77
2023/01/14 15:12:16;;;;;;;2.15;1.30;;;11.00;99.90;;;;;;6199123;28;20050;-78
2023/01/14 15:15:20;;;;;;;6.70;1.00;;;11.10;99.90;;;;;;6198998;28;20054;-79
2023/01/14 15:18:33;;;;;;;2.28;1.08;;;11.10;99.90;;;;;;6199636;28;20050;-78
2023/01/14 15:21:37;;;;;;;2.25;1.00;;;11.00;99.90;;;;;;6202286;28;20050;-79
2023/01/14 15:24:41;;;;;;;0.98;0.75;;;11.00;99.90;;;;;;6202267;28;20416;-77
2023/01/14 15:27:48;;;;;;;1.55;0.80;;;10.80;99.90;;;;;;6200703;28;20054;-78
2023/01/14 15:30:58;;;;;;;2.10;1.13;;;10.70;99.90;;;;;;6201018;28;20053;-78
2023/01/14 15:34:05;;;;;;;4.15;0.90;;;10.60;99.90;;;;;;6197363;28;20061;-78
2023/01/14 15:37:15;;;;;;;1.95;0.80;;;10.50;99.90;;;;;;6198772;28;20042;-79
2023/01/14 15:40:19;;;;;;;1.42;0.90;;;10.40;99.90;;;;;;6198224;28;20057;-78
2023/01/14 15:43:26;;;;;;;1.73;0.82;;;10.40;99.90;;;;;;6198052;28;20046;-79
2023/01/14 15:46:28;;;;;;;1.90;1.35;;;10.30;99.90;;;;;;6198405;28;20042;-79
2023/01/14 15:49:30;;;;;;;1.55;0.90;;;10.40;99.90;;;;;;6196681;28;20054;-78
2023/01/14 15:52:33;;;;;;;2.88;1.17;;;10.40;99.90;;;;;;6198483;28;20061;-78
2023/01/14 15:55:35;;;;;;;2.30;1.05;;;10.40;99.90;;;;;;6197466;28;20046;-78
2023/01/14 15:58:40;;;;;;;3.33;1.15;;;10.40;99.90;;;;;;6196426;28;20058;-78
2023/01/14 16:01:50;;;;;;;4.72;1.17;;;10.50;99.90;;;;;;6198009;28;20420;-78
2023/01/14 16:04:52;;;;;;;1.55;0.93;;;10.50;99.90;;;;;;6198456;28;20042;-78
2023/01/14 16:07:54;;;;;;;6.55;1.25;;;10.50;99.90;;;;;;6203321;28;20054;-80
2023/01/14 16:10:57;;;;;;;1.88;1.13;;;10.50;99.90;;;;;;6202777;28;20046;-80
2023/01/14 16:14:01;;;;;;;2.05;1.10;;;10.50;99.90;;;;;;6204157;28;20056;-80
2023/01/14 16:17:04;;;;;;;2.35;1.20;;;10.60;99.90;;;;;;6202770;28;20133;-79
2023/01/14 16:20:12;;;;;;;1.42;0.80;;;10.80;99.90;;;;;;6202862;28;20054;-81
2023/01/14 16:23:14;;;;;;;4.88;2.15;;;10.90;99.90;;;;;;6202521;28;20046;-80
2023/01/14 16:26:17;;;;;;;1.90;0.90;;;11.00;99.90;;;;;;6198721;28;20038;-81
2023/01/14 16:29:20;;;;;;;2.88;1.15;;;11.00;99.90;;;;;;6199885;28;20053;-80
2023/01/14 16:32:22;;;;;;;1.00;0.90;;;11.00;99.90;;;;;;6201020;28;20190;-79
2023/01/14 16:35:24;;;;;;;2.60;1.00;;;11.00;99.90;;;;;;6189973;28;20448;-79
2023/01/14 16:38:25;;;;;;;3.05;1.13;;;10.90;99.90;;;;;;6203750;28;20122;-79
2023/01/14 16:41:27;;;;;;;1.23;0.75;;;11.00;99.90;;;;;;6207853;28;20046;-81
2023/01/14 16:44:31;;;;;;;1.70;0.80;;;11.00;99.90;;;;;;6208671;28;20054;-80
2023/01/14 16:47:32;;;;;;;2.33;1.85;;;10.90;99.90;;;;;;6206491;28;20050;-80
2023/01/14 16:50:34;;;;;;;1.20;0.70;;;10.80;99.90;;;;;;6206341;28;20054;-79
2023/01/14 16:53:36;;;;;;;3.08;1.25;;;10.60;99.90;;;;;;6203802;28;20046;-78
2023/01/14 16:56:37;;;;;;;1.95;0.60;;;10.50;99.90;;;;;;6204231;28;20054;-79